Flugplatz Kassel-Calden

Bericht für EDVK

vom 29.11. um 09:20 UTC

Wind 3 kt aus 90°

Sichtweite 10 km oder mehr

aufgebrochene Bewölkung in 2600 ft

Temperatur 0.0°C

Taupunkt -2.0°C

Luftfeuchtigkeit 86%

Luftdruck 1026 hPa

EDVK 290920Z 09003KT 040V120 9999 BKN026 00/M02 Q1026

Prognose für EDVK

vom 29.11. um 08:00 UTC

Zwischen 09:00 UTC und 18:00 UTC

Wind 3 kt aus 80°

Sichtweite 10 km oder mehr

aufgelockert bewölkt in 2500 ft

TAF EDVK 290800Z 2909/2918 08003KT 9999 SCT025
Impressum